createdAt,value
2023-10-29T00:05:07.769Z,14.61
2023-10-29T00:10:39.235Z,14.49
2023-10-29T00:16:11.721Z,14.36
2023-10-29T00:21:42.684Z,14.61
2023-10-29T00:27:14.387Z,14.51
2023-10-29T00:32:46.150Z,14.59
2023-10-29T00:38:18.694Z,14.35
2023-10-29T00:43:49.812Z,14.31
2023-10-29T00:49:25.670Z,14.39
2023-10-29T00:54:57.706Z,14.32
2023-10-29T01:00:29.041Z,14.34
2023-10-29T01:06:01.601Z,14.44
2023-10-29T01:11:32.834Z,14.6
2023-10-29T01:17:04.366Z,14.58
2023-10-29T01:22:35.990Z,14.8
2023-10-29T01:28:08.110Z,14.83
2023-10-29T01:33:39.712Z,14.86
2023-10-29T01:39:11.187Z,15.04
2023-10-29T01:44:42.927Z,14.92
2023-10-29T01:50:19.377Z,14.91
2023-10-29T01:55:50.999Z,14.87
2023-10-29T02:01:22.931Z,14.66
2023-10-29T02:07:42.558Z,14.75
2023-10-29T02:12:25.982Z,14.64
2023-10-29T02:17:57.625Z,14.76
2023-10-29T02:23:29.423Z,14.77
2023-10-29T02:29:01.036Z,14.68
2023-10-29T02:34:32.888Z,14.83
2023-10-29T02:40:04.475Z,15.01
2023-10-29T02:45:36.283Z,14.93
2023-10-29T02:51:12.428Z,14.86
2023-10-29T02:56:44.065Z,14.89
2023-10-29T03:02:15.755Z,14.85
2023-10-29T03:07:47.559Z,14.93
2023-10-29T03:13:19.236Z,14.9
2023-10-29T03:18:51.050Z,14.91
2023-10-29T03:24:22.847Z,14.64
2023-10-29T03:29:54.457Z,15.05
2023-10-29T03:35:26.179Z,15.03
2023-10-29T03:40:57.799Z,14.91
2023-10-29T03:46:29.626Z,14.99
2023-10-29T03:52:05.619Z,14.77
2023-10-29T03:57:37.558Z,14.89
2023-10-29T04:03:09.128Z,15.04
2023-10-29T04:08:40.933Z,15.18
2023-10-29T04:14:12.672Z,14.86
2023-10-29T04:19:44.312Z,14.68
2023-10-29T04:25:16.455Z,14.71
2023-10-29T04:30:47.914Z,14.72
2023-10-29T04:36:19.658Z,14.97
2023-10-29T04:41:51.182Z,15.08
2023-10-29T04:47:23.675Z,15.1
2023-10-29T04:52:59.135Z,15.1
2023-10-29T04:58:30.730Z,15.12
2023-10-29T05:04:02.546Z,15.1
2023-10-29T05:09:34.131Z,15.32
2023-10-29T05:15:05.966Z,15.36
2023-10-29T05:20:37.646Z,15.48
2023-10-29T05:26:09.369Z,15.68
2023-10-29T05:31:41.281Z,15.63
2023-10-29T05:37:12.783Z,15.48
2023-10-29T05:42:44.616Z,15.42
2023-10-29T05:48:16.316Z,15.2
2023-10-29T05:53:52.396Z,15.2
2023-10-29T05:59:24.238Z,15.24
2023-10-29T06:04:56.035Z,15.2
2023-10-29T06:10:27.609Z,14.96
2023-10-29T06:15:59.477Z,14.79
2023-10-29T06:21:31.013Z,14.64
2023-10-29T06:27:02.797Z,14.83
2023-10-29T06:32:34.426Z,14.48
2023-10-29T06:38:06.136Z,14.51
2023-10-29T06:43:37.959Z,14.71
2023-10-29T06:49:09.578Z,14.66
2023-10-29T06:54:45.707Z,14.69
2023-10-29T07:00:17.898Z,14.59
2023-10-29T07:05:49.329Z,14.78
2023-10-29T07:11:20.855Z,15.0
2023-10-29T07:16:52.589Z,14.88
2023-10-29T07:22:24.312Z,14.99
2023-10-29T07:27:56.053Z,14.9
2023-10-29T07:33:27.872Z,15.02
2023-10-29T07:38:59.523Z,14.82
2023-10-29T07:44:31.393Z,14.9
2023-10-29T07:50:03.056Z,15.06
2023-10-29T07:55:39.081Z,14.87
2023-10-29T08:01:10.938Z,15.23
2023-10-29T08:06:42.545Z,15.25
2023-10-29T08:12:14.336Z,15.22
2023-10-29T08:17:46.180Z,15.27
2023-10-29T08:23:17.889Z,15.39
2023-10-29T08:28:49.367Z,15.34
2023-10-29T08:34:21.258Z,15.21
2023-10-29T08:39:53.016Z,15.22
2023-10-29T08:45:40.699Z,15.28
2023-10-29T08:50:56.387Z,15.44
2023-10-29T08:56:32.460Z,15.74
2023-10-29T09:02:04.194Z,15.84
2023-10-29T09:07:35.956Z,16.1
2023-10-29T09:13:07.828Z,16.06
2023-10-29T09:18:39.521Z,16.08
2023-10-29T09:24:11.185Z,15.96
2023-10-29T09:29:42.863Z,16.11
2023-10-29T09:35:14.534Z,15.86
2023-10-29T09:40:46.450Z,15.89
2023-10-29T09:46:18.156Z,15.91
2023-10-29T09:51:49.703Z,15.95
2023-10-29T09:57:26.045Z,16.0
2023-10-29T10:02:57.770Z,16.01
2023-10-29T10:08:29.417Z,15.96
2023-10-29T10:14:01.443Z,16.05
2023-10-29T10:19:32.733Z,16.02
2023-10-29T10:25:04.610Z,15.95
2023-10-29T10:30:36.194Z,15.96
2023-10-29T10:36:08.281Z,15.97
2023-10-29T10:41:39.669Z,16.05
2023-10-29T10:47:11.346Z,16.16
2023-10-29T10:52:43.132Z,16.21
2023-10-29T10:58:19.209Z,16.24
2023-10-29T11:03:51.029Z,16.16
2023-10-29T11:09:22.618Z,16.27
2023-10-29T11:14:54.360Z,16.35
2023-10-29T11:20:26.161Z,16.56
2023-10-29T11:25:57.786Z,16.65
2023-10-29T11:31:29.577Z,16.81
2023-10-29T11:37:01.239Z,17.05
2023-10-29T11:42:32.989Z,17.26
2023-10-29T11:48:04.791Z,17.32
2023-10-29T11:53:36.426Z,17.42
2023-10-29T11:59:12.534Z,17.6
2023-10-29T12:04:44.520Z,18.02
2023-10-29T12:10:16.315Z,18.77
2023-10-29T12:15:48.086Z,19.31
2023-10-29T12:21:19.620Z,19.74
2023-10-29T12:26:51.157Z,20.77
2023-10-29T12:32:23.071Z,20.83
2023-10-29T12:37:54.781Z,20.72
2023-10-29T12:43:26.880Z,20.53
2023-10-29T12:48:58.020Z,20.42
2023-10-29T12:54:29.845Z,20.23
2023-10-29T13:00:06.371Z,20.38
2023-10-29T13:05:37.778Z,20.21
2023-10-29T13:11:09.449Z,20.93
2023-10-29T13:16:41.151Z,20.95
2023-10-29T13:22:12.766Z,20.68
2023-10-29T13:27:44.534Z,20.55
2023-10-29T13:33:16.256Z,20.5
2023-10-29T13:38:48.277Z,20.38
2023-10-29T13:44:19.695Z,20.43
2023-10-29T13:49:51.409Z,20.31
2023-10-29T13:55:23.131Z,20.27
2023-10-29T14:00:59.293Z,20.42
2023-10-29T14:06:30.957Z,20.28
2023-10-29T14:12:02.880Z,20.06
2023-10-29T14:17:34.501Z,20.07
2023-10-29T14:23:06.286Z,20.11
2023-10-29T14:28:37.851Z,19.97
2023-10-29T14:34:09.698Z,20.13
2023-10-29T14:39:41.289Z,20.1
2023-10-29T14:45:13.173Z,20.16
2023-10-29T14:50:44.951Z,20.06
2023-10-29T14:56:16.453Z,20.1
2023-10-29T15:01:52.573Z,20.08
2023-10-29T15:07:24.315Z,20.23
2023-10-29T15:12:55.997Z,20.1
2023-10-29T15:18:28.019Z,20.07
2023-10-29T15:23:59.637Z,20.03
2023-10-29T15:29:31.353Z,19.85
2023-10-29T15:35:03.164Z,19.73
2023-10-29T15:40:35.323Z,19.72
2023-10-29T15:46:06.614Z,19.9
2023-10-29T15:51:38.227Z,19.68
2023-10-29T15:57:10.072Z,19.65
2023-10-29T16:02:47.983Z,19.61
2023-10-29T16:08:19.695Z,19.6
2023-10-29T16:13:51.404Z,19.49
2023-10-29T16:19:23.101Z,19.35
2023-10-29T16:24:54.773Z,19.28
2023-10-29T16:30:26.825Z,19.32
2023-10-29T16:35:58.463Z,19.18
2023-10-29T16:41:29.982Z,19.17
2023-10-29T16:47:01.899Z,19.09
2023-10-29T16:52:33.407Z,18.74
2023-10-29T16:58:05.144Z,18.02
2023-10-29T17:03:43.360Z,16.55
2023-10-29T17:09:15.009Z,15.8
2023-10-29T17:14:47.172Z,15.18
2023-10-29T17:20:18.448Z,14.88
2023-10-29T17:25:50.146Z,14.74
2023-10-29T17:31:21.905Z,14.95
2023-10-29T17:36:53.608Z,14.66
2023-10-29T17:42:25.443Z,14.78
2023-10-29T17:47:57.294Z,14.67
2023-10-29T17:53:28.901Z,14.62
2023-10-29T17:59:00.469Z,14.48
2023-10-29T18:04:36.584Z,14.38
2023-10-29T18:10:08.447Z,14.42
2023-10-29T18:15:40.224Z,14.17
2023-10-29T18:21:11.759Z,14.54
2023-10-29T18:26:43.498Z,14.25
2023-10-29T18:32:15.357Z,14.18
2023-10-29T18:37:46.877Z,14.01
2023-10-29T18:43:18.641Z,14.08
2023-10-29T18:48:50.464Z,14.17
2023-10-29T18:54:22.095Z,14.07
2023-10-29T18:59:53.958Z,13.99
2023-10-29T19:05:29.903Z,14.08
2023-10-29T19:11:02.113Z,14.15
2023-10-29T19:16:33.423Z,13.91
2023-10-29T19:22:05.115Z,14.71
2023-10-29T19:27:36.837Z,14.84
2023-10-29T19:33:08.686Z,15.12
2023-10-29T19:38:40.196Z,15.12
2023-10-29T19:44:12.142Z,15.12
2023-10-29T19:49:43.832Z,15.29
2023-10-29T19:55:15.601Z,15.28
2023-10-29T20:00:47.107Z,15.16
2023-10-29T20:06:23.433Z,15.34
2023-10-29T20:11:55.235Z,15.29
2023-10-29T20:17:26.721Z,15.35
2023-10-29T20:22:58.600Z,14.98
2023-10-29T20:28:30.330Z,14.73
2023-10-29T20:34:01.903Z,14.76
2023-10-29T20:39:33.777Z,14.83
2023-10-29T20:45:05.496Z,14.88
2023-10-29T20:50:37.050Z,14.66
2023-10-29T20:56:08.717Z,14.72
2023-10-29T21:01:40.505Z,14.54
2023-10-29T21:07:16.590Z,14.55
2023-10-29T21:12:48.513Z,14.71
2023-10-29T21:18:20.146Z,14.88
2023-10-29T21:23:51.834Z,14.86
2023-10-29T21:29:24.121Z,14.96
2023-10-29T21:34:55.265Z,15.06
2023-10-29T21:40:27.075Z,14.98
2023-10-29T21:45:59.449Z,14.88
2023-10-29T21:51:30.494Z,15.0
2023-10-29T21:57:02.370Z,15.16
2023-10-29T22:02:33.896Z,15.0
2023-10-29T22:08:10.951Z,14.73
2023-10-29T22:13:42.347Z,14.47
2023-10-29T22:19:13.432Z,14.81
2023-10-29T22:24:45.305Z,14.93
2023-10-29T22:30:17.023Z,14.74
2023-10-29T22:35:48.593Z,14.84
2023-10-29T22:41:21.049Z,14.54
2023-10-29T22:46:52.041Z,14.81
2023-10-29T22:52:23.775Z,14.89
2023-10-29T22:57:55.489Z,14.84
2023-10-29T23:03:27.258Z,14.92
2023-10-29T23:09:03.635Z,14.8
2023-10-29T23:14:35.017Z,14.92
2023-10-29T23:20:06.826Z,14.88
2023-10-29T23:25:38.456Z,14.93
2023-10-29T23:31:10.442Z,14.85
2023-10-29T23:36:41.906Z,14.99
2023-10-29T23:42:13.672Z,14.93
2023-10-29T23:47:45.378Z,14.87
2023-10-29T23:53:17.320Z,14.87
2023-10-29T23:58:49.148Z,14.78
